createdAt,value
2019-02-08T00:00:24.958Z,25.07
2019-02-08T00:02:54.511Z,26.50
2019-02-08T00:05:23.361Z,23.17
2019-02-08T00:07:52.215Z,23.00
2019-02-08T00:10:21.491Z,23.20
2019-02-08T00:12:50.446Z,23.13
2019-02-08T00:15:21.633Z,22.63
2019-02-08T00:17:50.677Z,28.37
2019-02-08T00:20:20.514Z,31.77
2019-02-08T00:22:49.523Z,23.60
2019-02-08T00:25:22.714Z,23.93
2019-02-08T00:27:51.639Z,24.00
2019-02-08T00:30:25.625Z,25.00
2019-02-08T00:32:54.554Z,23.73
2019-02-08T00:35:23.849Z,24.27
2019-02-08T00:37:52.841Z,22.77
2019-02-08T00:40:22.748Z,25.20
2019-02-08T00:42:51.582Z,25.73
2019-02-08T00:45:21.478Z,22.40
2019-02-08T00:47:50.229Z,25.03
2019-02-08T00:50:26.624Z,23.33
2019-02-08T00:52:55.835Z,24.83
2019-02-08T00:55:25.232Z,24.20
2019-02-08T00:57:54.427Z,25.00
2019-02-08T01:00:23.823Z,24.17
2019-02-08T01:02:53.913Z,23.87
2019-02-08T01:05:25.198Z,25.17
2019-02-08T01:07:54.706Z,26.90
2019-02-08T01:10:26.397Z,25.53
2019-02-08T01:12:55.306Z,27.57
2019-02-08T01:15:25.637Z,25.67
2019-02-08T01:17:54.725Z,25.03
2019-02-08T01:20:25.040Z,23.77
2019-02-08T01:22:54.249Z,24.00
2019-02-08T01:25:27.982Z,23.47
2019-02-08T01:27:56.776Z,22.50
2019-02-08T01:30:35.651Z,24.20
2019-02-08T01:33:04.838Z,23.83
2019-02-08T01:35:33.555Z,23.27
2019-02-08T01:38:02.425Z,21.20
2019-02-08T01:40:36.794Z,21.93
2019-02-08T01:43:07.025Z,19.53
2019-02-08T01:45:35.837Z,20.40
2019-02-08T01:48:06.979Z,19.50
2019-02-08T01:50:35.763Z,20.17
2019-02-08T01:53:05.252Z,21.57
2019-02-08T01:55:34.098Z,23.63
2019-02-08T01:58:03.100Z,24.23
2019-02-08T02:00:34.800Z,22.10
2019-02-08T02:03:04.521Z,20.07
2019-02-08T02:05:33.327Z,20.77
2019-02-08T02:08:02.100Z,21.70
2019-02-08T02:10:36.327Z,22.13
2019-02-08T02:13:05.700Z,22.03
2019-02-08T02:15:34.820Z,22.03
2019-02-08T02:18:04.286Z,18.77
2019-02-08T02:20:38.162Z,17.57
2019-02-08T02:23:08.042Z,19.27
2019-02-08T02:25:36.902Z,17.70
2019-02-08T02:28:06.604Z,19.07
2019-02-08T02:30:36.711Z,18.00
2019-02-08T02:33:08.603Z,18.97
2019-02-08T02:35:37.424Z,19.70
2019-02-08T02:38:06.860Z,20.17
2019-02-08T02:40:35.725Z,20.33
2019-02-08T02:43:05.571Z,20.87
2019-02-08T02:45:37.533Z,18.70
2019-02-08T02:48:07.857Z,19.97
2019-02-08T02:50:36.759Z,19.47
2019-02-08T02:53:05.889Z,18.27
2019-02-08T02:55:34.704Z,19.87
2019-02-08T02:58:03.793Z,20.23
2019-02-08T03:00:35.532Z,20.13
2019-02-08T03:03:04.696Z,18.13
2019-02-08T03:05:33.583Z,18.77
2019-02-08T03:08:02.412Z,18.00
2019-02-08T03:10:31.258Z,18.30
2019-02-08T03:13:00.064Z,18.50
2019-02-08T03:15:28.816Z,17.77
2019-02-08T03:17:57.628Z,19.37
2019-02-08T03:20:26.399Z,16.33
2019-02-08T03:22:55.256Z,17.03
2019-02-08T03:25:25.961Z,17.57
2019-02-08T03:27:54.995Z,16.47
2019-02-08T03:30:30.927Z,15.87
2019-02-08T03:32:59.840Z,17.17
2019-02-08T03:35:29.130Z,16.80
2019-02-08T03:37:57.892Z,17.63
2019-02-08T03:40:28.859Z,17.43
2019-02-08T03:42:58.278Z,18.63
2019-02-08T03:45:40.928Z,17.07
2019-02-08T03:48:10.490Z,17.57
2019-02-08T03:50:39.567Z,18.63
2019-02-08T03:53:09.293Z,18.87
2019-02-08T03:55:39.133Z,17.83
2019-02-08T03:58:08.529Z,17.67
2019-02-08T04:00:45.515Z,18.20
2019-02-08T04:03:14.320Z,18.40
2019-02-08T04:05:43.258Z,18.40
2019-02-08T04:08:12.063Z,17.07
2019-02-08T04:10:40.861Z,18.40
2019-02-08T04:13:09.637Z,18.23
2019-02-08T04:15:38.652Z,18.23
2019-02-08T04:18:07.367Z,18.90
2019-02-08T04:20:36.141Z,19.03
2019-02-08T04:23:05.000Z,18.27
2019-02-08T04:25:33.922Z,18.03
2019-02-08T04:28:02.815Z,18.07
2019-02-08T04:30:32.743Z,17.73
2019-02-08T04:33:02.766Z,17.97
2019-02-08T04:35:31.384Z,17.73
2019-02-08T04:38:00.112Z,16.77
2019-02-08T04:40:28.968Z,19.33
2019-02-08T04:42:58.065Z,19.47
2019-02-08T04:45:26.980Z,19.40
2019-02-08T04:47:55.734Z,18.90
2019-02-08T04:50:28.292Z,16.80
2019-02-08T04:52:58.004Z,19.23
2019-02-08T04:55:27.145Z,19.10
2019-02-08T04:57:56.056Z,18.57
2019-02-08T05:00:30.121Z,20.27
2019-02-08T05:02:59.084Z,18.70
2019-02-08T05:05:27.914Z,18.67
2019-02-08T05:07:56.802Z,20.03
2019-02-08T05:10:27.704Z,19.20
2019-02-08T05:12:56.530Z,20.80
2019-02-08T05:15:25.972Z,19.80
2019-02-08T05:17:54.837Z,19.90
2019-02-08T05:20:26.274Z,20.77
2019-02-08T05:22:55.048Z,19.67
2019-02-08T05:25:23.936Z,19.20
2019-02-08T05:27:52.937Z,20.53
2019-02-08T05:30:24.941Z,20.23
2019-02-08T05:32:53.874Z,19.37
2019-02-08T05:35:22.734Z,20.60
2019-02-08T05:37:51.509Z,21.73
2019-02-08T05:40:21.659Z,19.90
2019-02-08T05:42:50.448Z,19.47
2019-02-08T05:45:22.005Z,20.07
2019-02-08T05:47:50.960Z,20.17
2019-02-08T05:50:25.728Z,19.73
2019-02-08T05:52:54.476Z,19.43
2019-02-08T05:55:25.755Z,20.60
2019-02-08T05:57:54.670Z,20.57
2019-02-08T06:00:30.510Z,22.10
2019-02-08T06:02:59.325Z,20.17
2019-02-08T06:05:28.104Z,22.37
2019-02-08T06:07:56.964Z,22.13
2019-02-08T06:10:25.819Z,19.67
2019-02-08T06:12:54.645Z,19.57
2019-02-08T06:15:24.728Z,18.53
2019-02-08T06:17:53.733Z,17.27
2019-02-08T06:20:24.135Z,19.63
2019-02-08T06:22:53.215Z,17.53
2019-02-08T06:25:24.283Z,17.57
2019-02-08T06:27:53.059Z,16.83
2019-02-08T06:30:24.008Z,17.30
2019-02-08T06:32:52.852Z,17.23
2019-02-08T06:35:23.570Z,16.57
2019-02-08T06:37:52.779Z,17.73
2019-02-08T06:40:24.676Z,18.13
2019-02-08T06:42:53.975Z,18.73
2019-02-08T06:45:27.067Z,18.40
2019-02-08T06:47:55.934Z,20.10
2019-02-08T06:50:26.562Z,19.63
2019-02-08T06:52:55.655Z,21.03
2019-02-08T06:55:25.744Z,20.40
2019-02-08T06:57:59.704Z,20.47
2019-02-08T07:00:36.224Z,20.63
2019-02-08T07:03:23.742Z,19.40
2019-02-08T07:06:06.074Z,18.17
2019-02-08T07:08:39.403Z,17.60
2019-02-08T07:11:12.549Z,18.70
2019-02-08T07:13:48.562Z,17.73
2019-02-08T07:16:37.469Z,17.80
2019-02-08T07:19:11.249Z,17.37
2019-02-08T07:21:44.638Z,18.10
2019-02-08T07:24:15.444Z,20.10
2019-02-08T07:26:46.050Z,25.03
2019-02-08T07:29:19.460Z,22.33
2019-02-08T07:32:04.832Z,28.43
2019-02-08T07:34:50.354Z,35.47
2019-02-08T07:37:39.406Z,45.00
2019-02-08T07:40:15.640Z,55.33
2019-02-08T07:42:46.779Z,34.37
2019-02-08T07:45:18.294Z,28.27
2019-02-08T07:48:01.261Z,41.07
2019-02-08T07:50:34.723Z,37.97
2019-02-08T07:53:23.756Z,32.63
2019-02-08T07:55:56.948Z,30.83
2019-02-08T07:58:39.831Z,27.90
2019-02-08T08:01:10.865Z,31.63
2019-02-08T08:03:41.431Z,30.27
2019-02-08T08:06:19.373Z,34.33
2019-02-08T08:08:52.688Z,33.07
2019-02-08T08:11:41.313Z,30.70
2019-02-08T08:14:19.103Z,27.80
2019-02-08T08:17:04.980Z,31.27
2019-02-08T08:19:48.356Z,30.33
2019-02-08T08:22:35.338Z,35.07
2019-02-08T08:25:20.325Z,28.17
2019-02-08T08:28:07.744Z,24.20
2019-02-08T08:30:38.618Z,23.93
2019-02-08T08:33:12.088Z,17.17
2019-02-08T08:35:56.035Z,17.37
2019-02-08T08:38:33.800Z,17.00
2019-02-08T08:41:32.965Z,15.20
2019-02-08T08:44:25.743Z,16.40
2019-02-08T08:47:18.483Z,15.37
2019-02-08T08:50:09.830Z,14.87
2019-02-08T08:52:53.382Z,48.53
2019-02-08T08:55:42.412Z,45.30
2019-02-08T08:58:39.392Z,35.53
2019-02-08T09:01:27.674Z,22.37
2019-02-08T09:04:22.349Z,16.53
2019-02-08T09:06:54.243Z,17.00
2019-02-08T09:09:51.836Z,14.90
2019-02-08T09:12:36.197Z,14.80
2019-02-08T09:15:13.842Z,14.73
2019-02-08T09:17:48.387Z,15.13
2019-02-08T09:20:39.136Z,13.90
2019-02-08T09:23:39.944Z,14.70
2019-02-08T09:26:22.150Z,21.80
2019-02-08T09:29:05.949Z,14.77
2019-02-08T09:31:46.829Z,30.00
2019-02-08T09:34:27.267Z,17.70
2019-02-08T09:37:29.534Z,13.80
2019-02-08T09:40:11.625Z,14.17
2019-02-08T09:42:58.359Z,13.43
2019-02-08T09:45:36.204Z,12.20
2019-02-08T09:48:23.237Z,12.30
2019-02-08T09:51:21.371Z,13.37
2019-02-08T09:54:03.397Z,12.00
2019-02-08T09:56:44.651Z,21.90
2019-02-08T09:59:48.931Z,23.23
2019-02-08T10:02:29.856Z,29.70
2019-02-08T10:05:24.180Z,17.00
2019-02-08T10:08:14.548Z,21.10
2019-02-08T10:11:03.245Z,25.10
2019-02-08T10:13:53.270Z,20.73
2019-02-08T10:16:41.510Z,17.37
2019-02-08T10:19:28.557Z,14.23
2019-02-08T10:22:34.245Z,13.63
2019-02-08T10:25:24.060Z,12.20
2019-02-08T10:28:17.180Z,41.93
2019-02-08T10:31:05.591Z,25.17
2019-02-08T10:33:57.071Z,12.33
2019-02-08T10:36:57.686Z,12.70
2019-02-08T10:39:54.618Z,11.60
2019-02-08T10:42:41.605Z,11.83
2019-02-08T10:45:19.227Z,11.47
2019-02-08T10:48:07.356Z,12.47
2019-02-08T10:51:12.490Z,12.33
2019-02-08T10:53:59.382Z,11.70
2019-02-08T10:56:57.039Z,11.90
2019-02-08T10:59:52.877Z,13.20
2019-02-08T11:02:33.550Z,13.03
2019-02-08T11:05:35.789Z,12.97
2019-02-08T11:08:23.875Z,11.83
2019-02-08T11:11:27.672Z,12.03
2019-02-08T11:14:05.355Z,12.40
2019-02-08T11:16:55.390Z,12.83
2019-02-08T11:19:23.006Z,11.97
2019-02-08T11:21:52.100Z,10.90
2019-02-08T11:24:21.883Z,11.30
2019-02-08T11:26:50.847Z,10.23
2019-02-08T11:29:19.672Z,11.23
2019-02-08T11:31:48.450Z,10.93
2019-02-08T11:34:17.287Z,10.60
2019-02-08T11:36:46.254Z,11.03
2019-02-08T11:39:16.760Z,9.97
2019-02-08T11:41:46.827Z,10.67
2019-02-08T11:44:16.067Z,11.53
2019-02-08T11:46:45.392Z,11.17
2019-02-08T11:49:14.242Z,11.03
2019-02-08T11:51:43.111Z,10.13
2019-02-08T11:54:12.331Z,11.47
2019-02-08T11:56:41.349Z,13.97
2019-02-08T11:59:10.209Z,11.13
2019-02-08T12:01:40.759Z,11.13
2019-02-08T12:04:09.995Z,11.17
2019-02-08T12:06:38.768Z,9.67
2019-02-08T12:09:13.013Z,10.73
2019-02-08T12:11:42.027Z,12.93
2019-02-08T12:14:11.076Z,15.90
2019-02-08T12:16:40.203Z,12.50
2019-02-08T12:19:09.017Z,12.30
2019-02-08T12:21:37.944Z,12.63
2019-02-08T12:24:07.204Z,11.57
2019-02-08T12:26:37.965Z,11.37
2019-02-08T12:29:07.012Z,11.93
2019-02-08T12:31:35.940Z,13.47
2019-02-08T12:34:05.247Z,14.27
2019-02-08T12:36:35.461Z,11.83
2019-02-08T12:39:06.217Z,13.23
2019-02-08T12:41:35.105Z,13.03
2019-02-08T12:44:04.221Z,14.73
2019-02-08T12:46:33.145Z,15.73
2019-02-08T12:49:14.175Z,15.30
2019-02-08T12:51:43.118Z,14.47
2019-02-08T12:54:11.958Z,16.13
2019-02-08T12:56:45.422Z,15.63
2019-02-08T12:59:11.297Z,17.30
2019-02-08T13:01:40.448Z,14.80
2019-02-08T13:04:09.333Z,21.93
2019-02-08T13:06:38.184Z,14.20
2019-02-08T13:09:09.765Z,36.57
2019-02-08T13:11:38.601Z,49.67
2019-02-08T13:14:08.818Z,27.13
2019-02-08T13:16:37.615Z,27.30
2019-02-08T13:19:06.398Z,20.00
2019-02-08T13:21:35.388Z,38.43
2019-02-08T13:24:05.034Z,25.13
2019-02-08T13:26:34.186Z,38.93
2019-02-08T13:29:03.057Z,31.13
2019-02-08T13:31:31.752Z,26.13
2019-02-08T13:34:00.516Z,21.63
2019-02-08T13:36:29.239Z,20.40
2019-02-08T13:38:57.949Z,26.27
2019-02-08T13:41:26.728Z,25.37
2019-02-08T13:43:55.611Z,19.70
2019-02-08T13:46:24.485Z,23.50
2019-02-08T13:48:53.282Z,15.60
2019-02-08T13:51:22.135Z,21.10
2019-02-08T13:53:50.968Z,15.53
2019-02-08T13:56:19.803Z,18.57
2019-02-08T13:58:48.541Z,16.70
2019-02-08T14:01:17.380Z,14.23
2019-02-08T14:03:46.162Z,12.63
2019-02-08T14:06:15.010Z,11.63
2019-02-08T14:08:43.793Z,12.13
2019-02-08T14:11:12.564Z,15.50
2019-02-08T14:13:41.271Z,14.00
2019-02-08T14:16:09.962Z,15.13
2019-02-08T14:18:38.875Z,11.47
2019-02-08T14:21:07.818Z,14.43
2019-02-08T14:23:36.522Z,13.23
2019-02-08T14:26:05.355Z,11.53
2019-02-08T14:28:34.279Z,11.10
2019-02-08T14:31:03.100Z,12.70
2019-02-08T14:33:31.951Z,12.80
2019-02-08T14:36:00.784Z,9.97
2019-02-08T14:38:29.583Z,10.63
2019-02-08T14:40:58.696Z,10.87
2019-02-08T14:43:27.518Z,11.33
2019-02-08T14:45:57.952Z,13.53
2019-02-08T14:48:26.740Z,14.13
2019-02-08T14:50:55.403Z,20.67
2019-02-08T14:53:24.176Z,17.20
2019-02-08T14:55:53.280Z,13.10
2019-02-08T14:58:22.174Z,12.53
2019-02-08T15:00:50.946Z,11.23
2019-02-08T15:03:19.782Z,12.63
2019-02-08T15:05:48.913Z,20.73
2019-02-08T15:08:17.552Z,19.50
2019-02-08T15:10:49.747Z,20.27
2019-02-08T15:13:18.736Z,13.77
2019-02-08T15:15:47.742Z,14.87
2019-02-08T15:18:16.640Z,12.63
2019-02-08T15:20:45.418Z,13.73
2019-02-08T15:23:14.330Z,13.70
2019-02-08T15:25:43.375Z,12.13
2019-02-08T15:28:12.280Z,13.13
2019-02-08T15:30:41.076Z,14.37
2019-02-08T15:33:09.885Z,12.33
2019-02-08T15:35:38.777Z,26.30
2019-02-08T15:38:07.639Z,17.47
2019-02-08T15:40:46.334Z,17.93
2019-02-08T15:43:17.892Z,20.63
2019-02-08T15:45:50.154Z,15.87
2019-02-08T15:48:19.073Z,30.50
2019-02-08T15:50:48.027Z,35.03
2019-02-08T15:53:16.762Z,24.93
2019-02-08T15:56:00.682Z,29.10
2019-02-08T15:58:29.550Z,29.03
2019-02-08T16:00:58.548Z,44.60
2019-02-08T16:03:27.400Z,80.33
2019-02-08T16:05:56.299Z,27.63
2019-02-08T16:08:25.012Z,25.23
2019-02-08T16:10:53.909Z,30.77
2019-02-08T16:13:23.117Z,42.67
2019-02-08T16:15:51.990Z,42.13
2019-02-08T16:18:21.045Z,22.43
2019-02-08T16:20:49.949Z,29.63
2019-02-08T16:23:18.682Z,34.53
2019-02-08T16:25:47.581Z,35.87
2019-02-08T16:28:16.305Z,39.47
2019-02-08T16:30:45.146Z,50.80
2019-02-08T16:33:13.894Z,85.87
2019-02-08T16:35:42.939Z,89.23
2019-02-08T16:38:11.704Z,76.10
2019-02-08T16:40:40.549Z,73.53
2019-02-08T16:43:09.354Z,82.57
2019-02-08T16:45:39.997Z,99.50
2019-02-08T16:48:12.798Z,76.73
2019-02-08T16:50:43.135Z,80.67
2019-02-08T16:53:12.575Z,72.43
2019-02-08T16:55:41.511Z,69.17
2019-02-08T16:58:11.265Z,52.77
2019-02-08T17:00:42.019Z,45.93
2019-02-08T17:03:14.050Z,45.17
2019-02-08T17:05:43.317Z,47.47
2019-02-08T17:08:12.247Z,68.73
2019-02-08T17:10:41.278Z,82.57
2019-02-08T17:13:10.393Z,93.50
2019-02-08T17:15:39.066Z,82.73
2019-02-08T17:18:08.783Z,65.77
2019-02-08T17:20:42.519Z,52.43
2019-02-08T17:23:11.384Z,62.27
2019-02-08T17:25:40.305Z,44.90
2019-02-08T17:28:09.801Z,36.23
2019-02-08T17:30:38.898Z,59.33
2019-02-08T17:33:09.087Z,60.53
2019-02-08T17:35:38.128Z,65.40
2019-02-08T17:38:07.382Z,58.63
2019-02-08T17:40:39.207Z,63.40
2019-02-08T17:43:08.208Z,47.33
2019-02-08T17:45:37.283Z,51.13
2019-02-08T17:48:09.571Z,51.50
2019-02-08T17:50:38.396Z,58.33
2019-02-08T17:53:07.279Z,52.20
2019-02-08T17:55:37.182Z,45.43
2019-02-08T17:58:05.972Z,40.80
2019-02-08T18:00:51.278Z,39.63
2019-02-08T18:03:20.142Z,43.43
2019-02-08T18:05:48.943Z,46.40
2019-02-08T18:08:18.199Z,53.90
2019-02-08T18:10:47.018Z,54.83
2019-02-08T18:13:16.912Z,52.07
2019-02-08T18:15:45.981Z,43.77
2019-02-08T18:18:16.835Z,33.47
2019-02-08T18:20:57.706Z,41.63
2019-02-08T18:23:26.733Z,60.93
2019-02-08T18:25:55.453Z,53.07
2019-02-08T18:28:24.403Z,62.33
2019-02-08T18:30:53.172Z,83.73
2019-02-08T18:33:22.853Z,92.17
2019-02-08T18:35:52.067Z,83.33
2019-02-08T18:38:22.267Z,80.10
2019-02-08T18:40:51.174Z,85.30
2019-02-08T18:43:21.702Z,93.33
2019-02-08T18:45:50.687Z,101.33
2019-02-08T18:48:19.529Z,133.30
2019-02-08T18:50:52.132Z,132.53
2019-02-08T18:53:20.895Z,147.63
2019-02-08T18:55:49.797Z,156.07
2019-02-08T18:58:19.558Z,145.00
2019-02-08T19:00:53.237Z,140.43
2019-02-08T19:03:23.460Z,120.47
2019-02-08T19:05:52.270Z,117.23
2019-02-08T19:08:21.086Z,184.73
2019-02-08T19:10:49.914Z,165.07
2019-02-08T19:13:18.671Z,154.00
2019-02-08T19:15:47.384Z,130.73
2019-02-08T19:18:16.445Z,105.67
2019-02-08T19:20:45.261Z,121.07
2019-02-08T19:23:14.068Z,128.40
2019-02-08T19:25:44.822Z,122.60
2019-02-08T19:28:14.733Z,115.40
2019-02-08T19:30:44.533Z,102.63
2019-02-08T19:33:13.668Z,110.57
2019-02-08T19:35:42.681Z,156.67
2019-02-08T19:38:11.674Z,162.53
2019-02-08T19:40:43.173Z,136.60
2019-02-08T19:43:13.616Z,110.83
2019-02-08T19:45:42.458Z,123.27
2019-02-08T19:48:11.824Z,101.23
2019-02-08T19:50:42.713Z,98.77
2019-02-08T19:53:11.464Z,95.63
2019-02-08T19:55:40.990Z,107.03
2019-02-08T19:58:10.603Z,99.13
2019-02-08T20:00:58.846Z,74.60
2019-02-08T20:03:27.581Z,69.17
2019-02-08T20:05:56.373Z,86.37
2019-02-08T20:08:25.273Z,98.07
2019-02-08T20:10:54.049Z,105.43
2019-02-08T20:13:22.750Z,113.40
2019-02-08T20:15:51.612Z,120.90
2019-02-08T20:18:20.468Z,98.13
2019-02-08T20:20:49.255Z,91.00
2019-02-08T20:23:18.512Z,105.63
2019-02-08T20:25:47.273Z,113.27
2019-02-08T20:28:16.041Z,123.37
2019-02-08T20:30:44.931Z,120.53
2019-02-08T20:33:14.162Z,99.00
2019-02-08T20:35:42.862Z,89.00
2019-02-08T20:38:11.771Z,75.77
2019-02-08T20:40:48.786Z,86.40
2019-02-08T20:43:17.713Z,90.30
2019-02-08T20:45:46.806Z,88.20
2019-02-08T20:48:17.874Z,97.43
2019-02-08T20:50:46.852Z,81.20
2019-02-08T20:53:15.813Z,71.27
2019-02-08T20:55:44.812Z,56.63
2019-02-08T20:58:13.816Z,53.13
2019-02-08T21:00:45.564Z,51.53
2019-02-08T21:03:14.971Z,61.43
2019-02-08T21:05:44.529Z,65.27
2019-02-08T21:08:14.287Z,76.00
2019-02-08T21:10:43.497Z,58.73
2019-02-08T21:13:13.057Z,57.67
2019-02-08T21:15:41.774Z,68.77
2019-02-08T21:18:10.857Z,63.40
2019-02-08T21:20:40.190Z,43.13
2019-02-08T21:23:09.827Z,36.97
2019-02-08T21:25:41.081Z,39.60
2019-02-08T21:28:10.132Z,39.60
2019-02-08T21:30:39.282Z,46.33
2019-02-08T21:33:10.408Z,39.40
2019-02-08T21:35:39.595Z,38.73
2019-02-08T21:38:09.746Z,38.70
2019-02-08T21:40:39.116Z,35.47
2019-02-08T21:43:08.136Z,37.90
2019-02-08T21:45:41.838Z,33.20
2019-02-08T21:48:11.857Z,35.47
2019-02-08T21:50:40.802Z,34.47
2019-02-08T21:53:09.675Z,38.93
2019-02-08T21:55:38.440Z,41.93
2019-02-08T21:58:07.210Z,50.80
2019-02-08T22:00:41.574Z,43.63
2019-02-08T22:03:10.846Z,35.20
2019-02-08T22:05:48.261Z,31.50
2019-02-08T22:08:16.961Z,34.60
2019-02-08T22:10:45.890Z,38.90
2019-02-08T22:13:14.703Z,39.83
2019-02-08T22:15:45.238Z,44.80
2019-02-08T22:18:14.076Z,39.40
2019-02-08T22:20:43.619Z,36.53
2019-02-08T22:23:12.857Z,39.47
2019-02-08T22:25:41.719Z,40.97
2019-02-08T22:28:10.870Z,36.70
2019-02-08T22:30:40.138Z,37.97
2019-02-08T22:33:12.216Z,46.60
2019-02-08T22:35:41.180Z,39.03
2019-02-08T22:38:10.362Z,52.63
2019-02-08T22:40:39.198Z,62.70
2019-02-08T22:43:08.124Z,48.00
2019-02-08T22:45:38.903Z,55.70
2019-02-08T22:48:08.098Z,55.73
2019-02-08T22:50:36.930Z,56.67
2019-02-08T22:53:07.575Z,49.40
2019-02-08T22:55:36.828Z,44.73
2019-02-08T22:58:07.991Z,50.10
2019-02-08T23:00:43.497Z,34.93
2019-02-08T23:03:14.270Z,53.90
2019-02-08T23:05:45.797Z,69.73
2019-02-08T23:08:14.046Z,51.20
2019-02-08T23:10:42.802Z,57.40
2019-02-08T23:13:12.418Z,61.07
2019-02-08T23:15:41.380Z,56.77
2019-02-08T23:18:11.242Z,46.77
2019-02-08T23:20:39.965Z,45.00
2019-02-08T23:23:09.008Z,53.30
2019-02-08T23:25:37.806Z,38.87
2019-02-08T23:28:07.194Z,50.60
2019-02-08T23:30:36.471Z,51.83
2019-02-08T23:33:05.867Z,54.13
2019-02-08T23:35:41.853Z,55.03
2019-02-08T23:38:05.280Z,53.67
2019-02-08T23:40:34.047Z,58.13
2019-02-08T23:43:02.746Z,44.87
2019-02-08T23:45:31.531Z,38.70
2019-02-08T23:48:00.383Z,43.33
2019-02-08T23:50:29.202Z,43.93
2019-02-08T23:52:57.914Z,41.87
2019-02-08T23:55:27.975Z,42.07
2019-02-08T23:57:56.767Z,46.37
